Antilles Vi — 3EKX6 — position and weather

sailwx.info

Track history (hours):
 
Tides and Currents Weather Stations Pressure Air Temp Water Temp Dewpoint Dewpoint Depression Visibility Wind Speed Wind Dir Waves Ship Positions

Antilles Vi

Last reported at 2018-Feb-17 12:17 UTC. Time now 2018-Feb-22 19:23 UTC.
Position S 27°51' E 154°00'.

Length 170 m; draft 6.8 m.

Type: Cargo ship. MMSI: 373622000.

Date/timePositionNaut miles runAvg speedWind from/ knotsBaromVisibWave heightAir tempDewpointWater temp
2018-Feb-17 12:17S 27°51' E 154°00'311.6
2018-Feb-17 12:00S 27°54' E 153°60'711.5
2018-Feb-17 11:25S 28°01' E 153°59'511.3
2018-Feb-17 10:56S 28°06' E 153°58'510.9
2018-Feb-17 10:30S 28°11' E 153°58'510.9
2018-Feb-17 10:01S 28°16' E 153°57'1010.5
2018-Feb-17 09:05S 28°26' E 153°56'110.6
2018-Feb-17 08:59S 28°27' E 153°56'510.5
2018-Feb-17 08:30S 28°32' E 153°56'25410.4
2018-Feb-16 08:05S 32°39' E 152°48'112.9
2018-Feb-16 08:01S 32°40' E 152°47'1313.1
2018-Feb-16 07:02S 32°52' E 152°41'014.7
2018-Feb-16 07:00S 32°52' E 152°41'2513.8
2018-Feb-16 05:13S 33°15' E 152°29'314.0
2018-Feb-16 04:59S 33°17' E 152°27'1313.8
2018-Feb-16 04:02S 33°29' E 152°21'114.2
2018-Feb-16 03:59S 33°30' E 152°20'913.7
2018-Feb-16 03:22S 33°38' E 152°16'513.4
2018-Feb-16 02:58S 33°43' E 152°13'  
Track history (hours):
 
Tides and Currents Weather Stations Pressure Air Temp Water Temp Dewpoint Dewpoint Depression Visibility Wind Speed Wind Dir Waves Ship Positions

Antilles Vi

Last reported at 2018-Feb-17 12:17 UTC. Time now 2018-Feb-22 19:23 UTC.
Position S 27°51' E 154°00'.

Length 170 m; draft 6.8 m.

Type: Cargo ship. MMSI: 373622000.

Date/timePositionNaut miles runAvg speedWind from/ knotsBaromVisibWave heightAir tempDewpointWater temp
2018-Feb-17 12:17S 27°51' E 154°00'311.6
2018-Feb-17 12:00S 27°54' E 153°60'711.5
2018-Feb-17 11:25S 28°01' E 153°59'511.3
2018-Feb-17 10:56S 28°06' E 153°58'510.9
2018-Feb-17 10:30S 28°11' E 153°58'510.9
2018-Feb-17 10:01S 28°16' E 153°57'1010.5
2018-Feb-17 09:05S 28°26' E 153°56'110.6
2018-Feb-17 08:59S 28°27' E 153°56'510.5
2018-Feb-17 08:30S 28°32' E 153°56'25410.4
2018-Feb-16 08:05S 32°39' E 152°48'112.9
2018-Feb-16 08:01S 32°40' E 152°47'1313.1
2018-Feb-16 07:02S 32°52' E 152°41'014.7
2018-Feb-16 07:00S 32°52' E 152°41'2513.8
2018-Feb-16 05:13S 33°15' E 152°29'314.0
2018-Feb-16 04:59S 33°17' E 152°27'1313.8
2018-Feb-16 04:02S 33°29' E 152°21'114.2
2018-Feb-16 03:59S 33°30' E 152°20'913.7
2018-Feb-16 03:22S 33°38' E 152°16'513.4
2018-Feb-16 02:58S 33°43' E 152°13'  

Dump ship's entire track history